Ottawa / Dwyer Hill Heliport

CYDH · 安大略, 加拿大

使用的METAR站距离机场16 NM。
罗盘
风向 的 风向 350° 直升机
风: 9 kt, 3 beaufort
0 ft 2.000 4.000 6.000 8.000 10.000
Cloud Cloud Cloud Cloud
SCT 7.500
Cloud Cloud Cloud Cloud Cloud Cloud
BKN 10.000
METAR CYOW 210300Z 35009KT 15SM SCT075 BKN100 22/14 A3026 RMK AC3AC4 SLP249 DENSITY ALT 900FT

METAR Ottawa / Dwyer Hill Heliport - CYDH

Ottawa / Dwyer Hill Heliport是,加拿大中的直升机场。 该机场位于纬度45,13060和经度-75,94830。 本场的ICAO机场代码为CYDH。 机场在Montreal FIR中。

该航空气象观测是针对Ottawa/Macdonald-Cartier International Airport在2024年6月20日 23:00, 当地时间进行的。

机场观察

风向为350°,速度为9 kt。

可见度为15 mi。

有疏云,零星散落的云朵在7.500 ft的高度 和 碎云在10.000 ft的高度。 破损或更高的上限为10.000 ft。

温度和风寒是22 °C。 露点为14 °C,相对湿度为61%。 海平面上的气压为30,26 inHg (QNH)。

白天

今天,太阳从05:16升起,在20:54降落。 这适用于Ottawa / Dwyer Hill Heliport,世界夏令时可能有所不同。 当地时间与世界标准时间之间的时差为-4 小时。 夏令时目前正在进行中。

公司介绍

我们没有关于这个机场的公司信息。

体会

到Vliegles.nl去找飞行课程,跳伞和其他飞行体验。 浏览页面,了解Ottawa / Dwyer Hill Heliport附近所有可用的活动。 你也可以使用搜索功能来寻找你所在地附近的特定飞行课程、跳伞或其他飞行体验。

乌云

7.500 ft SCT 疏云,零星散落的云朵
10.000 ft BKN 碎云

温度 & 天气

温度 22 °C
露点 14 °C
相对湿度 61%
Kp-index 0 (0-9)

评论

SLP249海平面压力为30,27 inHg (30,27 inHg)
AC3AC4 DENSITY ALT 900FT

白天

日出
05:14 (5:20)
中午
13:04
日落
20:54

小工具

你想在你的网站上有一个关于Ottawa / Dwyer Hill Heliport的当前航空天气(METAR)的小部件吗?

显示HTML代码
报告变更